sensor_id;sensor_type;location;lat;lon;timestamp;pressure;altitude;pressure_sealevel;temperature;humidity
44457;BME280;30159;49.316;8.558;2023-11-21T00:02:22;99772.81;;;10.65;100.00
44457;BME280;30159;49.316;8.558;2023-11-21T00:04:50;99762.50;;;10.67;100.00
44457;BME280;30159;49.316;8.558;2023-11-21T00:07:17;99767.50;;;10.74;100.00
44457;BME280;30159;49.316;8.558;2023-11-21T00:09:44;99756.53;;;10.70;100.00
44457;BME280;30159;49.316;8.558;2023-11-21T00:12:10;99770.72;;;10.76;100.00
44457;BME280;30159;49.316;8.558;2023-11-21T00:14:39;99763.66;;;10.80;100.00
44457;BME280;30159;49.316;8.558;2023-11-21T00:17:06;99767.94;;;10.81;100.00
44457;BME280;30159;49.316;8.558;2023-11-21T00:19:34;99768.72;;;10.68;100.00
44457;BME280;30159;49.316;8.558;2023-11-21T00:22:00;99775.03;;;10.77;100.00
44457;BME280;30159;49.316;8.558;2023-11-21T00:24:27;99766.13;;;10.76;100.00
44457;BME280;30159;49.316;8.558;2023-11-21T00:26:53;99769.22;;;10.70;100.00
44457;BME280;30159;49.316;8.558;2023-11-21T00:29:20;99766.91;;;10.63;100.00
44457;BME280;30159;49.316;8.558;2023-11-21T00:31:47;99757.69;;;10.64;100.00
44457;BME280;30159;49.316;8.558;2023-11-21T00:34:13;99761.50;;;10.63;100.00
44457;BME280;30159;49.316;8.558;2023-11-21T00:36:41;99760.50;;;10.59;100.00
44457;BME280;30159;49.316;8.558;2023-11-21T00:39:08;99751.28;;;10.60;100.00
44457;BME280;30159;49.316;8.558;2023-11-21T00:41:34;99763.38;;;10.49;100.00
44457;BME280;30159;49.316;8.558;2023-11-21T00:44:01;99764.66;;;10.51;100.00
44457;BME280;30159;49.316;8.558;2023-11-21T00:46:28;99758.16;;;10.52;100.00
44457;BME280;30159;49.316;8.558;2023-11-21T00:48:55;99761.09;;;10.56;100.00
44457;BME280;30159;49.316;8.558;2023-11-21T00:51:22;99759.56;;;10.50;100.00
44457;BME280;30159;49.316;8.558;2023-11-21T00:53:51;99744.97;;;10.51;100.00
44457;BME280;30159;49.316;8.558;2023-11-21T00:56:18;99752.50;;;10.54;100.00
44457;BME280;30159;49.316;8.558;2023-11-21T00:58:44;99747.53;;;10.61;100.00
44457;BME280;30159;49.316;8.558;2023-11-21T01:01:15;99747.09;;;10.54;100.00
44457;BME280;30159;49.316;8.558;2023-11-21T01:03:41;99747.66;;;10.51;100.00
44457;BME280;30159;49.316;8.558;2023-11-21T01:06:08;99719.50;;;10.43;100.00
44457;BME280;30159;49.316;8.558;2023-11-21T01:08:35;99751.28;;;10.60;100.00
44457;BME280;30159;49.316;8.558;2023-11-21T01:11:04;99758.31;;;10.61;100.00
44457;BME280;30159;49.316;8.558;2023-11-21T01:13:33;99768.06;;;10.57;100.00
44457;BME280;30159;49.316;8.558;2023-11-21T01:16:01;99761.28;;;10.60;100.00
44457;BME280;30159;49.316;8.558;2023-11-21T01:18:29;99769.22;;;10.70;100.00
44457;BME280;30159;49.316;8.558;2023-11-21T01:20:56;99765.63;;;10.74;100.00
44457;BME280;30159;49.316;8.558;2023-11-21T01:23:23;99748.81;;;10.64;100.00
44457;BME280;30159;49.316;8.558;2023-11-21T01:25:50;99733.09;;;10.52;100.00
44457;BME280;30159;49.316;8.558;2023-11-21T01:28:18;99771.50;;;10.76;100.00
44457;BME280;30159;49.316;8.558;2023-11-21T01:30:45;99751.66;;;10.53;100.00
44457;BME280;30159;49.316;8.558;2023-11-21T01:33:12;99769.28;;;10.65;100.00
44457;BME280;30159;49.316;8.558;2023-11-21T01:35:40;99766.53;;;10.70;100.00
44457;BME280;30159;49.316;8.558;2023-11-21T01:38:07;99765.88;;;10.59;100.00
44457;BME280;30159;49.316;8.558;2023-11-21T01:40:34;99766.69;;;10.60;100.00
44457;BME280;30159;49.316;8.558;2023-11-21T01:43:01;99766.81;;;10.68;100.00
44457;BME280;30159;49.316;8.558;2023-11-21T01:45:30;99746.59;;;10.52;100.00
44457;BME280;30159;49.316;8.558;2023-11-21T01:47:59;99751.66;;;10.53;100.00
44457;BME280;30159;49.316;8.558;2023-11-21T01:50:26;99775.91;;;10.72;100.00
44457;BME280;30159;49.316;8.558;2023-11-21T01:52:53;99771.31;;;10.73;100.00
44457;BME280;30159;49.316;8.558;2023-11-21T01:55:20;99774.91;;;10.68;100.00
44457;BME280;30159;49.316;8.558;2023-11-21T01:57:48;99776.50;;;10.69;100.00
44457;BME280;30159;49.316;8.558;2023-11-21T02:00:15;99768.03;;;10.76;100.00
44457;BME280;30159;49.316;8.558;2023-11-21T02:02:43;99729.69;;;10.46;100.00
44457;BME280;30159;49.316;8.558;2023-11-21T02:05:10;99764.91;;;10.69;100.00
44457;BME280;30159;49.316;8.558;2023-11-21T02:07:38;99773.59;;;10.66;100.00
44457;BME280;30159;49.316;8.558;2023-11-21T02:10:06;99765.19;;;10.67;100.00
44457;BME280;30159;49.316;8.558;2023-11-21T02:12:32;99757.63;;;10.69;100.00
44457;BME280;30159;49.316;8.558;2023-11-21T02:14:59;99754.34;;;10.72;100.00
44457;BME280;30159;49.316;8.558;2023-11-21T02:17:26;99763.59;;;10.66;100.00
44457;BME280;30159;49.316;8.558;2023-11-21T02:19:54;99747.06;;;10.40;100.00
44457;BME280;30159;49.316;8.558;2023-11-21T02:22:21;99756.69;;;10.60;100.00
44457;BME280;30159;49.316;8.558;2023-11-21T02:24:53;99765.78;;;10.64;100.00
44457;BME280;30159;49.316;8.558;2023-11-21T02:27:19;99755.91;;;10.60;100.00
44457;BME280;30159;49.316;8.558;2023-11-21T02:29:48;99769.09;;;10.61;100.00
44457;BME280;30159;49.316;8.558;2023-11-21T02:32:15;99765.97;;;10.54;100.00
44457;BME280;30159;49.316;8.558;2023-11-21T02:34:44;99770.25;;;10.55;100.00
44457;BME280;30159;49.316;8.558;2023-11-21T02:37:11;99738.22;;;10.34;100.00
44457;BME280;30159;49.316;8.558;2023-11-21T02:39:37;99763.69;;;10.61;100.00
44457;BME280;30159;49.316;8.558;2023-11-21T02:42:05;99612.19;;;9.61;100.00
44457;BME280;30159;49.316;8.558;2023-11-21T02:44:32;99764.25;;;10.58;100.00
44457;BME280;30159;49.316;8.558;2023-11-21T02:47:00;99759.81;;;10.67;100.00
44457;BME280;30159;49.316;8.558;2023-11-21T02:49:26;99757.63;;;10.69;100.00
44457;BME280;30159;49.316;8.558;2023-11-21T02:51:53;99755.94;;;10.73;100.00
44457;BME280;30159;49.316;8.558;2023-11-21T02:54:20;99756.16;;;10.77;100.00
44457;BME280;30159;49.316;8.558;2023-11-21T02:56:47;99759.94;;;10.76;100.00
44457;BME280;30159;49.316;8.558;2023-11-21T02:59:16;99763.09;;;10.64;100.00
44457;BME280;30159;49.316;8.558;2023-11-21T03:01:42;99755.81;;;10.65;100.00
44457;BME280;30159;49.316;8.558;2023-11-21T03:04:09;99765.38;;;10.57;100.00
44457;BME280;30159;49.316;8.558;2023-11-21T03:06:36;99757.88;;;10.54;100.00
44457;BME280;30159;49.316;8.558;2023-11-21T03:09:03;99754.38;;;10.53;100.00
44457;BME280;30159;49.316;8.558;2023-11-21T03:11:31;99762.16;;;10.55;100.00
44457;BME280;30159;49.316;8.558;2023-11-21T03:13:58;99756.19;;;10.58;100.00
44457;BME280;30159;49.316;8.558;2023-11-21T03:16:26;99727.59;;;10.43;100.00
44457;BME280;30159;49.316;8.558;2023-11-21T03:18:53;99761.66;;;10.53;100.00
44457;BME280;30159;49.316;8.558;2023-11-21T03:21:19;99756.69;;;10.60;100.00
44457;BME280;30159;49.316;8.558;2023-11-21T03:23:46;99747.59;;;10.56;100.00
44457;BME280;30159;49.316;8.558;2023-11-21T03:26:12;99749.31;;;10.66;100.00
44457;BME280;30159;49.316;8.558;2023-11-21T03:28:39;99755.56;;;10.47;100.00
44457;BME280;30159;49.316;8.558;2023-11-21T03:31:06;99756.69;;;10.60;100.00
44457;BME280;30159;49.316;8.558;2023-11-21T03:33:35;99761.50;;;10.63;100.00
44457;BME280;30159;49.316;8.558;2023-11-21T03:36:02;99748.78;;;10.50;100.00
44457;BME280;30159;49.316;8.558;2023-11-21T03:38:29;99761.50;;;10.63;100.00
44457;BME280;30159;49.316;8.558;2023-11-21T03:40:55;99768.72;;;10.68;100.00
44457;BME280;30159;49.316;8.558;2023-11-21T03:43:22;99768.81;;;10.76;100.00
44457;BME280;30159;49.316;8.558;2023-11-21T03:45:49;99766.25;;;10.85;100.00
44457;BME280;30159;49.316;8.558;2023-11-21T03:48:16;99779.53;;;10.82;100.00
44457;BME280;30159;49.316;8.558;2023-11-21T03:50:44;99766.34;;;10.80;100.00
44457;BME280;30159;49.316;8.558;2023-11-21T03:53:12;99752.72;;;10.71;100.00
44457;BME280;30159;49.316;8.558;2023-11-21T03:55:39;99746.25;;;10.72;100.00
44457;BME280;30159;49.316;8.558;2023-11-21T03:58:05;99718.13;;;10.60;100.00
44457;BME280;30159;49.316;8.558;2023-11-21T04:00:32;99771.22;;;10.78;100.00
44457;BME280;30159;49.316;8.558;2023-11-21T04:02:58;99775.75;;;10.83;100.00
44457;BME280;30159;49.316;8.558;2023-11-21T04:05:25;99769.97;;;10.89;100.00
44457;BME280;30159;49.316;8.558;2023-11-21T04:07:53;99775.34;;;10.89;100.00
44457;BME280;30159;49.316;8.558;2023-11-21T04:10:20;99733.31;;;10.55;100.00
44457;BME280;30159;49.316;8.558;2023-11-21T04:12:47;99778.84;;;10.90;100.00
44457;BME280;30159;49.316;8.558;2023-11-21T04:15:14;99778.75;;;10.95;100.00
44457;BME280;30159;49.316;8.558;2023-11-21T04:17:40;99778.75;;;10.95;100.00
44457;BME280;30159;49.316;8.558;2023-11-21T04:20:08;99781.03;;;10.88;100.00
44457;BME280;30159;49.316;8.558;2023-11-21T04:22:36;99789.13;;;10.88;100.00
44457;BME280;30159;49.316;8.558;2023-11-21T04:25:08;99795.72;;;10.82;100.00
44457;BME280;30159;49.316;8.558;2023-11-21T04:27:34;99807.44;;;10.91;100.00
44457;BME280;30159;49.316;8.558;2023-11-21T04:30:01;99797.13;;;10.93;100.00
44457;BME280;30159;49.316;8.558;2023-11-21T04:32:28;99792.94;;;10.87;100.00
44457;BME280;30159;49.316;8.558;2023-11-21T04:34:54;99797.63;;;10.95;100.00
44457;BME280;30159;49.316;8.558;2023-11-21T04:37:21;99805.06;;;11.03;100.00
44457;BME280;30159;49.316;8.558;2023-11-21T04:39:48;99803.97;;;11.04;100.00
44457;BME280;30159;49.316;8.558;2023-11-21T04:42:16;99804.28;;;11.03;100.00
44457;BME280;30159;49.316;8.558;2023-11-21T04:44:42;99809.22;;;10.95;100.00
44457;BME280;30159;49.316;8.558;2023-11-21T04:47:09;99808.81;;;10.88;100.00
44457;BME280;30159;49.316;8.558;2023-11-21T04:49:36;99789.00;;;10.79;100.00
44457;BME280;30159;49.316;8.558;2023-11-21T04:52:04;99796.25;;;10.97;100.00
44457;BME280;30159;49.316;8.558;2023-11-21T04:54:31;99807.53;;;11.00;100.00
44457;BME280;30159;49.316;8.558;2023-11-21T04:56:57;99796.25;;;10.97;100.00
44457;BME280;30159;49.316;8.558;2023-11-21T04:59:27;99815.72;;;10.94;100.00
44457;BME280;30159;49.316;8.558;2023-11-21T05:01:54;99807.59;;;10.81;100.00
44457;BME280;30159;49.316;8.558;2023-11-21T05:04:20;99819.91;;;10.87;100.00
44457;BME280;30159;49.316;8.558;2023-11-21T05:06:47;99825.31;;;10.87;100.00
44457;BME280;30159;49.316;8.558;2023-11-21T05:09:15;99823.13;;;10.89;100.00
44457;BME280;30159;49.316;8.558;2023-11-21T05:11:41;99818.31;;;10.86;100.00
44457;BME280;30159;49.316;8.558;2023-11-21T05:14:08;99820.72;;;10.87;100.00
44457;BME280;30159;49.316;8.558;2023-11-21T05:16:36;99721.53;;;10.13;100.00
44457;BME280;30159;49.316;8.558;2023-11-21T05:19:03;99829.09;;;10.86;100.00
44457;BME280;30159;49.316;8.558;2023-11-21T05:21:30;99829.47;;;10.79;100.00
44457;BME280;30159;49.316;8.558;2023-11-21T05:23:57;99831.47;;;10.73;100.00
44457;BME280;30159;49.316;8.558;2023-11-21T05:26:24;99832.16;;;10.79;100.00
44457;BME280;30159;49.316;8.558;2023-11-21T05:28:51;99845.66;;;10.79;100.00
44457;BME280;30159;49.316;8.558;2023-11-21T05:31:17;99841.66;;;10.76;100.00
44457;BME280;30159;49.316;8.558;2023-11-21T05:33:46;99844.84;;;10.79;100.00
44457;BME280;30159;49.316;8.558;2023-11-21T05:36:12;99840.06;;;10.75;100.00
44457;BME280;30159;49.316;8.558;2023-11-21T05:38:39;99854.19;;;10.86;100.00
44457;BME280;30159;49.316;8.558;2023-11-21T05:41:06;99852.06;;;10.83;100.00
44457;BME280;30159;49.316;8.558;2023-11-21T05:43:33;99848.88;;;10.62;100.00
44457;BME280;30159;49.316;8.558;2023-11-21T05:46:01;99860.34;;;10.73;100.00
44457;BME280;30159;49.316;8.558;2023-11-21T05:48:28;99868.19;;;10.69;100.00
44457;BME280;30159;49.316;8.558;2023-11-21T05:50:55;99881.75;;;10.64;100.00
44457;BME280;30159;49.316;8.558;2023-11-21T05:53:22;99881.84;;;10.59;100.00
44457;BME280;30159;49.316;8.558;2023-11-21T05:55:49;99748.94;;;9.83;100.00
44457;BME280;30159;49.316;8.558;2023-11-21T05:58:15;99884.38;;;10.69;100.00
44457;BME280;30159;49.316;8.558;2023-11-21T06:00:42;99874.97;;;10.67;100.00
44457;BME280;30159;49.316;8.558;2023-11-21T06:03:09;99841.03;;;10.47;100.00
44457;BME280;30159;49.316;8.558;2023-11-21T06:05:36;99890.97;;;10.63;100.00
44457;BME280;30159;49.316;8.558;2023-11-21T06:08:04;99855.09;;;10.44;100.00
44457;BME280;30159;49.316;8.558;2023-11-21T06:10:32;99889.84;;;10.64;100.00
44457;BME280;30159;49.316;8.558;2023-11-21T06:12:59;99895.84;;;10.61;100.00
44457;BME280;30159;49.316;8.558;2023-11-21T06:15:26;99897.75;;;10.61;100.00
44457;BME280;30159;49.316;8.558;2023-11-21T06:17:53;99894.16;;;10.65;100.00
44457;BME280;30159;49.316;8.558;2023-11-21T06:20:20;99899.75;;;10.69;100.00
44457;BME280;30159;49.316;8.558;2023-11-21T06:22:49;99897.44;;;10.62;100.00
44457;BME280;30159;49.316;8.558;2023-11-21T06:25:18;99882.47;;;10.51;100.00
44457;BME280;30159;49.316;8.558;2023-11-21T06:27:46;99901.66;;;10.68;100.00
44457;BME280;30159;49.316;8.558;2023-11-21T06:30:14;99913.41;;;10.78;100.00
44457;BME280;30159;49.316;8.558;2023-11-21T06:32:41;99893.50;;;10.73;100.00
44457;BME280;30159;49.316;8.558;2023-11-21T06:35:11;99917.41;;;10.80;100.00
44457;BME280;30159;49.316;8.558;2023-11-21T06:37:38;99921.41;;;10.83;100.00
44457;BME280;30159;49.316;8.558;2023-11-21T06:40:06;99922.72;;;10.66;100.00
44457;BME280;30159;49.316;8.558;2023-11-21T06:42:36;99919.44;;;10.69;100.00
44457;BME280;30159;49.316;8.558;2023-11-21T06:45:04;99924.28;;;10.72;100.00
44457;BME280;30159;49.316;8.558;2023-11-21T06:47:31;99921.56;;;10.72;100.00
44457;BME280;30159;49.316;8.558;2023-11-21T06:49:58;99927.53;;;10.69;100.00
44457;BME280;30159;49.316;8.558;2023-11-21T06:52:25;99935.25;;;10.76;100.00
44457;BME280;30159;49.316;8.558;2023-11-21T06:54:52;99934.38;;;10.81;100.00
44457;BME280;30159;49.316;8.558;2023-11-21T06:57:19;99944.59;;;10.84;100.00
44457;BME280;30159;49.316;8.558;2023-11-21T06:59:47;99948.47;;;10.78;100.00
44457;BME280;30159;49.316;8.558;2023-11-21T07:02:15;99951.59;;;10.85;100.00
44457;BME280;30159;49.316;8.558;2023-11-21T07:04:43;99932.13;;;10.69;100.00
44457;BME280;30159;49.316;8.558;2023-11-21T07:07:10;99934.25;;;10.72;100.00
44457;BME280;30159;49.316;8.558;2023-11-21T07:09:37;99956.19;;;10.84;100.00
44457;BME280;30159;49.316;8.558;2023-11-21T07:12:04;99872.81;;;10.31;100.00
44457;BME280;30159;49.316;8.558;2023-11-21T07:14:32;99939.34;;;10.73;100.00
44457;BME280;30159;49.316;8.558;2023-11-21T07:17:01;99962.59;;;10.88;100.00
44457;BME280;30159;49.316;8.558;2023-11-21T07:19:27;99943.88;;;10.78;100.00
44457;BME280;30159;49.316;8.558;2023-11-21T07:21:54;99973.25;;;10.99;100.00
44457;BME280;30159;49.316;8.558;2023-11-21T07:24:21;99979.81;;;10.73;100.00
44457;BME280;30159;49.316;8.558;2023-11-21T07:26:48;99963.53;;;10.60;100.00
44457;BME280;30159;49.316;8.558;2023-11-21T07:29:14;99991.72;;;10.72;100.00
44457;BME280;30159;49.316;8.558;2023-11-21T07:31:41;99991.72;;;10.48;100.00
44457;BME280;30159;49.316;8.558;2023-11-21T07:34:09;99995.94;;;10.36;100.00
44457;BME280;30159;49.316;8.558;2023-11-21T07:36:37;100000.00;;;10.33;100.00
44457;BME280;30159;49.316;8.558;2023-11-21T07:39:04;100006.47;;;10.32;100.00
44457;BME280;30159;49.316;8.558;2023-11-21T07:41:32;100005.63;;;10.37;100.00
44457;BME280;30159;49.316;8.558;2023-11-21T07:43:59;100004.31;;;10.34;100.00
44457;BME280;30159;49.316;8.558;2023-11-21T07:46:26;99975.88;;;10.18;100.00
44457;BME280;30159;49.316;8.558;2023-11-21T07:48:52;100007.06;;;10.29;100.00
44457;BME280;30159;49.316;8.558;2023-11-21T07:51:21;100010.56;;;10.29;100.00
44457;BME280;30159;49.316;8.558;2023-11-21T07:53:48;100011.00;;;10.37;100.00
44457;BME280;30159;49.316;8.558;2023-11-21T07:56:15;100004.47;;;10.43;100.00
44457;BME280;30159;49.316;8.558;2023-11-21T07:58:41;100010.03;;;10.51;100.00
44457;BME280;30159;49.316;8.558;2023-11-21T08:01:08;100020.06;;;10.70;100.00
44457;BME280;30159;49.316;8.558;2023-11-21T08:03:35;100018.38;;;10.93;100.00
44457;BME280;30159;49.316;8.558;2023-11-21T08:06:01;100019.56;;;11.06;100.00
44457;BME280;30159;49.316;8.558;2023-11-21T08:08:32;100015.34;;;11.00;100.00
44457;BME280;30159;49.316;8.558;2023-11-21T08:10:59;100011.91;;;11.13;100.00
44457;BME280;30159;49.316;8.558;2023-11-21T08:13:28;100013.72;;;11.17;100.00
44457;BME280;30159;49.316;8.558;2023-11-21T08:15:56;100011.19;;;11.26;100.00
44457;BME280;30159;49.316;8.558;2023-11-21T08:18:26;100010.59;;;11.29;100.00
44457;BME280;30159;49.316;8.558;2023-11-21T08:20:52;100023.28;;;11.29;100.00
44457;BME280;30159;49.316;8.558;2023-11-21T08:23:20;100016.09;;;11.05;100.00
44457;BME280;30159;49.316;8.558;2023-11-21T08:25:52;100011.84;;;10.99;100.00
44457;BME280;30159;49.316;8.558;2023-11-21T08:28:19;99987.63;;;10.75;100.00
44457;BME280;30159;49.316;8.558;2023-11-21T08:30:51;100035.25;;;11.04;100.00
44457;BME280;30159;49.316;8.558;2023-11-21T08:33:18;100002.06;;;10.65;100.00
44457;BME280;30159;49.316;8.558;2023-11-21T08:35:44;100049.97;;;10.92;100.00
44457;BME280;30159;49.316;8.558;2023-11-21T08:38:12;100054.13;;;10.85;100.00
44457;BME280;30159;49.316;8.558;2023-11-21T08:40:38;100058.97;;;10.64;100.00
44457;BME280;30159;49.316;8.558;2023-11-21T08:43:06;100060.22;;;10.71;100.00
44457;BME280;30159;49.316;8.558;2023-11-21T08:45:34;100058.56;;;10.75;100.00
44457;BME280;30159;49.316;8.558;2023-11-21T08:48:01;100066.00;;;10.84;100.00
44457;BME280;30159;49.316;8.558;2023-11-21T08:50:28;100063.44;;;10.73;100.00
44457;BME280;30159;49.316;8.558;2023-11-21T08:52:55;100048.00;;;10.55;100.00
44457;BME280;30159;49.316;8.558;2023-11-21T08:55:21;100067.91;;;10.83;100.00
44457;BME280;30159;49.316;8.558;2023-11-21T08:57:48;100069.44;;;10.89;100.00
44457;BME280;30159;49.316;8.558;2023-11-21T09:00:17;100057.34;;;10.87;100.00
44457;BME280;30159;49.316;8.558;2023-11-21T09:02:45;100080.41;;;10.98;100.00
44457;BME280;30159;49.316;8.558;2023-11-21T09:05:12;100036.56;;;10.87;100.00
44457;BME280;30159;49.316;8.558;2023-11-21T09:07:40;100069.19;;;11.29;100.00
44457;BME280;30159;49.316;8.558;2023-11-21T09:10:08;100070.06;;;11.43;100.00
44457;BME280;30159;49.316;8.558;2023-11-21T09:12:35;100054.94;;;11.42;100.00
44457;BME280;30159;49.316;8.558;2023-11-21T09:15:03;100078.31;;;11.52;100.00
44457;BME280;30159;49.316;8.558;2023-11-21T09:17:31;100075.09;;;11.31;100.00
44457;BME280;30159;49.316;8.558;2023-11-21T09:19:59;100084.50;;;11.14;100.00
44457;BME280;30159;49.316;8.558;2023-11-21T09:22:26;100087.06;;;11.25;100.00
44457;BME280;30159;49.316;8.558;2023-11-21T09:24:55;100082.53;;;11.20;100.00
44457;BME280;30159;49.316;8.558;2023-11-21T09:27:22;100092.47;;;11.25;100.00
44457;BME280;30159;49.316;8.558;2023-11-21T09:29:48;100085.81;;;11.36;100.00
44457;BME280;30159;49.316;8.558;2023-11-21T09:32:15;100095.38;;;11.47;100.00
44457;BME280;30159;49.316;8.558;2023-11-21T09:34:45;100094.44;;;11.38;100.00
44457;BME280;30159;49.316;8.558;2023-11-21T09:37:11;100098.56;;;11.30;100.00
44457;BME280;30159;49.316;8.558;2023-11-21T09:39:38;100095.50;;;11.18;100.00
44457;BME280;30159;49.316;8.558;2023-11-21T09:42:09;100111.25;;;11.11;100.00
44457;BME280;30159;49.316;8.558;2023-11-21T09:44:44;100111.88;;;11.27;100.00
44457;BME280;30159;49.316;8.558;2023-11-21T09:47:15;100091.16;;;11.41;100.00
44457;BME280;30159;49.316;8.558;2023-11-21T09:49:45;100123.13;;;11.53;100.00
44457;BME280;30159;49.316;8.558;2023-11-21T09:52:18;100118.06;;;11.46;100.00
44457;BME280;30159;49.316;8.558;2023-11-21T09:54:48;100119.38;;;11.49;100.00
44457;BME280;30159;49.316;8.558;2023-11-21T09:57:15;100126.44;;;11.26;100.00
44457;BME280;30159;49.316;8.558;2023-11-21T09:59:44;100134.63;;;11.21;100.00
44457;BME280;30159;49.316;8.558;2023-11-21T10:02:11;100131.06;;;11.25;100.00
44457;BME280;30159;49.316;8.558;2023-11-21T10:04:39;100069.63;;;10.98;100.00
44457;BME280;30159;49.316;8.558;2023-11-21T10:07:07;100118.06;;;11.46;100.00
44457;BME280;30159;49.316;8.558;2023-11-21T10:09:35;100131.06;;;11.44;100.00
44457;BME280;30159;49.316;8.558;2023-11-21T10:12:06;100134.09;;;11.18;100.00
44457;BME280;30159;49.316;8.558;2023-11-21T10:14:34;100137.31;;;11.21;100.00
44457;BME280;30159;49.316;8.558;2023-11-21T10:17:03;100146.44;;;11.25;100.00
44457;BME280;30159;49.316;8.558;2023-11-21T10:19:35;100142.25;;;11.37;100.00
44457;BME280;30159;49.316;8.558;2023-11-21T10:22:02;100153.41;;;11.50;100.00
44457;BME280;30159;49.316;8.558;2023-11-21T10:24:31;100122.00;;;11.35;100.00
44457;BME280;30159;49.316;8.558;2023-11-21T10:26:57;100147.22;;;11.49;100.00
44457;BME280;30159;49.316;8.558;2023-11-21T10:29:25;100126.78;;;11.43;100.00
44457;BME280;30159;49.316;8.558;2023-11-21T10:31:52;100147.69;;;11.51;100.00
44457;BME280;30159;49.316;8.558;2023-11-21T10:34:22;100144.00;;;11.47;100.00
44457;BME280;30159;49.316;8.558;2023-11-21T10:36:49;100134.78;;;11.29;100.00
44457;BME280;30159;49.316;8.558;2023-11-21T10:39:17;100136.59;;;11.15;100.00
44457;BME280;30159;49.316;8.558;2023-11-21T10:41:46;100147.97;;;11.12;100.00
44457;BME280;30159;49.316;8.558;2023-11-21T10:44:13;100142.84;;;11.10;100.00
44457;BME280;30159;49.316;8.558;2023-11-21T10:46:45;100147.09;;;11.16;100.00
44457;BME280;30159;49.316;8.558;2023-11-21T10:49:16;100153.88;;;11.14;100.00
44457;BME280;30159;49.316;8.558;2023-11-21T10:51:43;100165.13;;;10.97;100.00
44457;BME280;30159;49.316;8.558;2023-11-21T10:54:10;100113.72;;;10.64;100.00
44457;BME280;30159;49.316;8.558;2023-11-21T10:56:38;100164.09;;;10.93;100.00
44457;BME280;30159;49.316;8.558;2023-11-21T10:59:10;100164.75;;;10.85;100.00
44457;BME280;30159;49.316;8.558;2023-11-21T11:01:40;100172.44;;;10.72;100.00
44457;BME280;30159;49.316;8.558;2023-11-21T11:04:09;100140.06;;;10.43;100.00
44457;BME280;30159;49.316;8.558;2023-11-21T11:06:41;100183.25;;;10.67;100.00
44457;BME280;30159;49.316;8.558;2023-11-21T11:09:10;100180.28;;;10.69;100.00
44457;BME280;30159;49.316;8.558;2023-11-21T11:11:39;100183.25;;;10.67;100.00
44457;BME280;30159;49.316;8.558;2023-11-21T11:14:08;100182.47;;;10.67;100.00
44457;BME280;30159;49.316;8.558;2023-11-21T11:16:37;100171.91;;;10.70;100.00
44457;BME280;30159;49.316;8.558;2023-11-21T11:19:05;100174.31;;;10.72;100.00
44457;BME280;30159;49.316;8.558;2023-11-21T11:21:42;100174.59;;;10.70;100.00
44457;BME280;30159;49.316;8.558;2023-11-21T11:24:21;100174.50;;;10.81;100.00
44457;BME280;30159;49.316;8.558;2023-11-21T11:26:56;100178.00;;;11.05;100.00
44457;BME280;30159;49.316;8.558;2023-11-21T11:29:33;100186.03;;;11.10;100.00
44457;BME280;30159;49.316;8.558;2023-11-21T11:32:10;100174.00;;;11.03;100.00
44457;BME280;30159;49.316;8.558;2023-11-21T11:34:45;100176.81;;;11.16;100.00
44457;BME280;30159;49.316;8.558;2023-11-21T11:37:15;100173.38;;;11.30;100.00
44457;BME280;30159;49.316;8.558;2023-11-21T11:39:42;100181.72;;;11.33;100.00
44457;BME280;30159;49.316;8.558;2023-11-21T11:42:12;100179.88;;;11.29;100.00
44457;BME280;30159;49.316;8.558;2023-11-21T11:44:48;100176.16;;;11.25;100.00
44457;BME280;30159;49.316;8.558;2023-11-21T11:47:20;100111.75;;;10.94;100.00
44457;BME280;30159;49.316;8.558;2023-11-21T11:50:01;100179.75;;;11.39;100.00
44457;BME280;30159;49.316;8.558;2023-11-21T11:52:36;100183.34;;;11.53;100.00
44457;BME280;30159;49.316;8.558;2023-11-21T11:55:05;100173.88;;;11.75;100.00
44457;BME280;30159;49.316;8.558;2023-11-21T11:57:33;100178.00;;;11.67;100.00
44457;BME280;30159;49.316;8.558;2023-11-21T12:00:34;100178.97;;;11.57;100.00
44457;BME280;30159;49.316;8.558;2023-11-21T12:03:04;100176.94;;;11.49;100.00
44457;BME280;30159;49.316;8.558;2023-11-21T12:05:32;100183.22;;;11.64;100.00
44457;BME280;30159;49.316;8.558;2023-11-21T12:08:02;100195.69;;;11.78;100.00
44457;BME280;30159;49.316;8.558;2023-11-21T12:10:30;100183.84;;;11.74;100.00
44457;BME280;30159;49.316;8.558;2023-11-21T12:12:58;100202.69;;;11.60;100.00
44457;BME280;30159;49.316;8.558;2023-11-21T12:15:25;100197.72;;;11.49;100.00
44457;BME280;30159;49.316;8.558;2023-11-21T12:17:55;100056.16;;;10.50;100.00
44457;BME280;30159;49.316;8.558;2023-11-21T12:20:24;100207.41;;;11.31;100.00
44457;BME280;30159;49.316;8.558;2023-11-21T12:22:52;100173.34;;;11.11;100.00
44457;BME280;30159;49.316;8.558;2023-11-21T12:25:20;100203.00;;;11.35;100.00
44457;BME280;30159;49.316;8.558;2023-11-21T12:27:48;100180.41;;;11.31;100.00
44457;BME280;30159;49.316;8.558;2023-11-21T12:30:17;100197.06;;;11.57;100.00
44457;BME280;30159;49.316;8.558;2023-11-21T12:32:48;100202.19;;;11.58;100.00
44457;BME280;30159;49.316;8.558;2023-11-21T12:35:17;100183.47;;;11.43;100.00
44457;BME280;30159;49.316;8.558;2023-11-21T12:37:45;100201.22;;;11.49;100.00
44457;BME280;30159;49.316;8.558;2023-11-21T12:40:12;100208.13;;;11.36;100.00
44457;BME280;30159;49.316;8.558;2023-11-21T12:42:41;100209.53;;;11.34;100.00
44457;BME280;30159;49.316;8.558;2023-11-21T12:45:09;100213.00;;;11.34;100.00
44457;BME280;30159;49.316;8.558;2023-11-21T12:47:41;100207.25;;;11.41;100.00
44457;BME280;30159;49.316;8.558;2023-11-21T12:50:08;100213.63;;;11.50;100.00